sensor_id;sensor_type;location;lat;lon;timestamp;P1;durP1;ratioP1;P2;durP2;ratioP2
1753;SDS011;58380;48.312;9.246;2024-03-29T07:51:20;9.05;;;4.82;;
1753;SDS011;58380;48.312;9.246;2024-03-29T07:54:22;6.53;;;3.38;;
1753;SDS011;58380;48.312;9.246;2024-03-29T07:57:22;4.72;;;2.88;;
1753;SDS011;58380;48.312;9.246;2024-03-29T08:00:22;5.05;;;2.95;;
1753;SDS011;58380;48.312;9.246;2024-03-29T08:03:23;6.00;;;2.88;;
1753;SDS011;58380;48.312;9.246;2024-03-29T08:06:24;10.50;;;3.67;;
1753;SDS011;58380;48.312;9.246;2024-03-29T08:09:24;13.13;;;4.53;;
1753;SDS011;58380;48.312;9.246;2024-03-29T08:12:25;11.43;;;4.20;;
1753;SDS011;58380;48.312;9.246;2024-03-29T08:15:25;8.98;;;3.40;;
1753;SDS011;58380;48.312;9.246;2024-03-29T08:18:26;7.35;;;3.20;;
1753;SDS011;58380;48.312;9.246;2024-03-29T08:21:28;8.50;;;3.17;;
1753;SDS011;58380;48.312;9.246;2024-03-29T08:24:29;7.68;;;3.05;;
1753;SDS011;58380;48.312;9.246;2024-03-29T08:27:29;6.30;;;2.50;;
1753;SDS011;58380;48.312;9.246;2024-03-29T08:30:30;5.57;;;2.63;;
1753;SDS011;58380;48.312;9.246;2024-03-29T08:33:34;3.95;;;1.45;;
1753;SDS011;58380;48.312;9.246;2024-03-29T08:36:37;2.00;;;1.10;;
1753;SDS011;58380;48.312;9.246;2024-03-29T08:39:37;3.10;;;1.50;;
1753;SDS011;58380;48.312;9.246;2024-03-29T08:42:38;1.55;;;1.00;;
1753;SDS011;58380;48.312;9.246;2024-03-29T08:45:39;2.97;;;0.70;;
1753;SDS011;58380;48.312;9.246;2024-03-29T08:48:40;2.13;;;0.90;;
1753;SDS011;58380;48.312;9.246;2024-03-29T08:51:43;1.33;;;0.73;;
1753;SDS011;58380;48.312;9.246;2024-03-29T08:54:43;0.63;;;0.40;;
1753;SDS011;58380;48.312;9.246;2024-03-29T08:57:44;2.00;;;0.70;;
1753;SDS011;58380;48.312;9.246;2024-03-29T09:00:51;1.65;;;0.75;;
1753;SDS011;58380;48.312;9.246;2024-03-29T09:03:55;2.90;;;1.65;;
1753;SDS011;58380;48.312;9.246;2024-03-29T09:06:55;1.92;;;0.98;;
1753;SDS011;58380;48.312;9.246;2024-03-29T09:09:55;1.65;;;0.95;;
1753;SDS011;58380;48.312;9.246;2024-03-29T09:12:56;2.25;;;0.95;;
1753;SDS011;58380;48.312;9.246;2024-03-29T09:15:56;4.13;;;1.50;;
1753;SDS011;58380;48.312;9.246;2024-03-29T09:18:56;3.88;;;1.30;;
1753;SDS011;58380;48.312;9.246;2024-03-29T09:21:58;4.40;;;2.78;;
1753;SDS011;58380;48.312;9.246;2024-03-29T09:24:58;0.50;;;0.50;;
1753;SDS011;58380;48.312;9.246;2024-03-29T09:27:58;1.60;;;0.80;;
1753;SDS011;58380;48.312;9.246;2024-03-29T09:30:59;2.45;;;1.05;;
1753;SDS011;58380;48.312;9.246;2024-03-29T09:34:00;4.30;;;0.95;;
1753;SDS011;58380;48.312;9.246;2024-03-29T09:37:01;3.65;;;1.83;;
1753;SDS011;58380;48.312;9.246;2024-03-29T09:40:03;3.72;;;1.85;;
1753;SDS011;58380;48.312;9.246;2024-03-29T09:43:04;2.10;;;0.98;;
1753;SDS011;58380;48.312;9.246;2024-03-29T09:46:09;3.03;;;1.50;;
1753;SDS011;58380;48.312;9.246;2024-03-29T09:49:09;1.58;;;0.73;;
1753;SDS011;58380;48.312;9.246;2024-03-29T09:52:12;6.15;;;1.48;;
1753;SDS011;58380;48.312;9.246;2024-03-29T09:55:14;1.48;;;0.88;;
1753;SDS011;58380;48.312;9.246;2024-03-29T09:58:16;4.75;;;2.30;;
1753;SDS011;58380;48.312;9.246;2024-03-29T10:01:16;9.05;;;3.05;;
1753;SDS011;58380;48.312;9.246;2024-03-29T10:04:18;5.07;;;2.33;;
1753;SDS011;58380;48.312;9.246;2024-03-29T10:07:23;2.58;;;1.30;;
1753;SDS011;58380;48.312;9.246;2024-03-29T10:10:25;1.42;;;0.70;;
1753;SDS011;58380;48.312;9.246;2024-03-29T10:13:25;0.95;;;0.40;;
1753;SDS011;58380;48.312;9.246;2024-03-29T10:16:26;1.85;;;0.80;;
1753;SDS011;58380;48.312;9.246;2024-03-29T10:19:30;3.80;;;1.45;;
1753;SDS011;58380;48.312;9.246;2024-03-29T10:22:40;4.63;;;2.30;;
1753;SDS011;58380;48.312;9.246;2024-03-29T10:25:43;1.63;;;0.73;;
1753;SDS011;58380;48.312;9.246;2024-03-29T10:28:43;1.33;;;0.60;;
1753;SDS011;58380;48.312;9.246;2024-03-29T10:31:46;2.40;;;0.63;;
1753;SDS011;58380;48.312;9.246;2024-03-29T10:34:49;1.08;;;0.68;;
1753;SDS011;58380;48.312;9.246;2024-03-29T10:37:51;2.50;;;0.43;;
1753;SDS011;58380;48.312;9.246;2024-03-29T10:40:53;0.63;;;0.47;;
1753;SDS011;58380;48.312;9.246;2024-03-29T10:43:54;1.60;;;0.38;;
1753;SDS011;58380;48.312;9.246;2024-03-29T10:46:58;1.73;;;0.50;;
1753;SDS011;58380;48.312;9.246;2024-03-29T10:50:01;0.73;;;0.40;;
1753;SDS011;58380;48.312;9.246;2024-03-29T10:53:05;1.58;;;0.60;;
1753;SDS011;58380;48.312;9.246;2024-03-29T10:56:07;2.05;;;0.65;;
1753;SDS011;58380;48.312;9.246;2024-03-29T10:59:16;0.82;;;0.40;;
1753;SDS011;58380;48.312;9.246;2024-03-29T11:05:51;0.55;;;0.25;;
1753;SDS011;58380;48.312;9.246;2024-03-29T11:08:55;2.22;;;0.70;;
1753;SDS011;58380;48.312;9.246;2024-03-29T11:11:59;1.90;;;0.60;;
1753;SDS011;58380;48.312;9.246;2024-03-29T11:15:03;1.20;;;0.40;;
1753;SDS011;58380;48.312;9.246;2024-03-29T11:18:15;1.10;;;0.60;;
1753;SDS011;58380;48.312;9.246;2024-03-29T11:21:18;1.13;;;0.60;;
1753;SDS011;58380;48.312;9.246;2024-03-29T11:24:21;4.70;;;0.60;;
1753;SDS011;58380;48.312;9.246;2024-03-29T11:27:22;3.65;;;0.40;;
1753;SDS011;58380;48.312;9.246;2024-03-29T11:30:24;0.85;;;0.30;;
1753;SDS011;58380;48.312;9.246;2024-03-29T11:33:25;1.35;;;0.50;;
1753;SDS011;58380;48.312;9.246;2024-03-29T11:36:30;1.08;;;0.50;;
1753;SDS011;58380;48.312;9.246;2024-03-29T11:39:33;1.55;;;0.70;;
1753;SDS011;58380;48.312;9.246;2024-03-29T11:42:37;1.17;;;0.50;;
1753;SDS011;58380;48.312;9.246;2024-03-29T11:45:44;4.22;;;0.60;;
1753;SDS011;58380;48.312;9.246;2024-03-29T11:48:48;0.85;;;0.50;;
1753;SDS011;58380;48.312;9.246;2024-03-29T11:52:01;0.50;;;0.50;;
1753;SDS011;58380;48.312;9.246;2024-03-29T11:55:04;1.45;;;0.50;;
1753;SDS011;58380;48.312;9.246;2024-03-29T11:58:05;1.50;;;0.50;;
1753;SDS011;58380;48.312;9.246;2024-03-29T12:01:06;0.68;;;0.40;;
1753;SDS011;58380;48.312;9.246;2024-03-29T12:04:23;0.82;;;0.40;;
1753;SDS011;58380;48.312;9.246;2024-03-29T12:07:23;1.08;;;0.70;;
1753;SDS011;58380;48.312;9.246;2024-03-29T12:10:27;1.42;;;0.50;;
1753;SDS011;58380;48.312;9.246;2024-03-29T12:13:28;1.00;;;0.70;;
1753;SDS011;58380;48.312;9.246;2024-03-29T12:16:30;1.63;;;0.47;;
1753;SDS011;58380;48.312;9.246;2024-03-29T12:19:30;0.80;;;0.60;;
1753;SDS011;58380;48.312;9.246;2024-03-29T12:22:32;0.85;;;0.55;;
1753;SDS011;58380;48.312;9.246;2024-03-29T12:25:33;2.95;;;0.57;;
1753;SDS011;58380;48.312;9.246;2024-03-29T12:28:36;1.33;;;0.50;;
1753;SDS011;58380;48.312;9.246;2024-03-29T12:31:37;2.42;;;0.88;;
1753;SDS011;58380;48.312;9.246;2024-03-29T12:34:39;0.77;;;0.50;;
1753;SDS011;58380;48.312;9.246;2024-03-29T12:37:47;1.58;;;0.90;;
1753;SDS011;58380;48.312;9.246;2024-03-29T12:40:52;1.65;;;0.47;;
1753;SDS011;58380;48.312;9.246;2024-03-29T12:43:53;0.88;;;0.57;;
1753;SDS011;58380;48.312;9.246;2024-03-29T12:46:53;1.55;;;0.60;;
1753;SDS011;58380;48.312;9.246;2024-03-29T12:49:54;0.55;;;0.40;;
1753;SDS011;58380;48.312;9.246;2024-03-29T12:52:59;0.52;;;0.40;;
1753;SDS011;58380;48.312;9.246;2024-03-29T12:56:01;0.80;;;0.50;;
1753;SDS011;58380;48.312;9.246;2024-03-29T12:59:01;0.82;;;0.40;;
1753;SDS011;58380;48.312;9.246;2024-03-29T13:02:02;1.70;;;0.88;;
1753;SDS011;58380;48.312;9.246;2024-03-29T13:05:04;0.80;;;0.50;;
1753;SDS011;58380;48.312;9.246;2024-03-29T13:08:05;3.70;;;0.60;;
1753;SDS011;58380;48.312;9.246;2024-03-29T13:11:07;1.35;;;0.45;;
1753;SDS011;58380;48.312;9.246;2024-03-29T13:14:07;1.63;;;0.70;;
1753;SDS011;58380;48.312;9.246;2024-03-29T13:17:09;0.55;;;0.38;;
1753;SDS011;58380;48.312;9.246;2024-03-29T13:20:11;0.98;;;0.38;;
1753;SDS011;58380;48.312;9.246;2024-03-29T13:23:12;1.23;;;0.38;;
1753;SDS011;58380;48.312;9.246;2024-03-29T13:26:14;0.68;;;0.40;;
1753;SDS011;58380;48.312;9.246;2024-03-29T13:29:14;2.05;;;0.50;;
1753;SDS011;58380;48.312;9.246;2024-03-29T13:32:15;0.30;;;0.30;;
1753;SDS011;58380;48.312;9.246;2024-03-29T13:35:15;7.88;;;0.38;;
1753;SDS011;58380;48.312;9.246;2024-03-29T13:38:16;1.05;;;0.30;;
1753;SDS011;58380;48.312;9.246;2024-03-29T13:41:21;0.57;;;0.38;;
1753;SDS011;58380;48.312;9.246;2024-03-29T13:44:21;0.30;;;0.30;;
1753;SDS011;58380;48.312;9.246;2024-03-29T13:47:22;2.53;;;0.30;;
1753;SDS011;58380;48.312;9.246;2024-03-29T13:50:22;0.43;;;0.20;;
1753;SDS011;58380;48.312;9.246;2024-03-29T13:53:22;0.55;;;0.28;;
1753;SDS011;58380;48.312;9.246;2024-03-29T13:56:23;2.38;;;0.80;;
1753;SDS011;58380;48.312;9.246;2024-03-29T13:59:23;0.63;;;0.20;;
1753;SDS011;58380;48.312;9.246;2024-03-29T14:02:23;0.80;;;0.25;;
1753;SDS011;58380;48.312;9.246;2024-03-29T14:05:26;0.40;;;0.20;;
1753;SDS011;58380;48.312;9.246;2024-03-29T14:08:26;3.10;;;0.90;;
1753;SDS011;58380;48.312;9.246;2024-03-29T14:11:27;1.63;;;0.90;;
1753;SDS011;58380;48.312;9.246;2024-03-29T14:14:28;2.63;;;1.20;;
1753;SDS011;58380;48.312;9.246;2024-03-29T14:17:28;2.20;;;1.10;;
1753;SDS011;58380;48.312;9.246;2024-03-29T14:20:28;1.67;;;0.80;;
1753;SDS011;58380;48.312;9.246;2024-03-29T14:23:29;1.95;;;0.73;;
1753;SDS011;58380;48.312;9.246;2024-03-29T14:26:29;2.28;;;1.17;;
1753;SDS011;58380;48.312;9.246;2024-03-29T14:29:30;1.15;;;0.70;;
1753;SDS011;58380;48.312;9.246;2024-03-29T14:32:34;3.00;;;1.00;;
1753;SDS011;58380;48.312;9.246;2024-03-29T14:35:34;1.65;;;0.73;;
1753;SDS011;58380;48.312;9.246;2024-03-29T14:38:35;1.85;;;0.73;;
1753;SDS011;58380;48.312;9.246;2024-03-29T14:41:35;2.03;;;1.00;;
1753;SDS011;58380;48.312;9.246;2024-03-29T14:44:36;1.15;;;0.70;;
1753;SDS011;58380;48.312;9.246;2024-03-29T14:47:37;1.70;;;0.90;;
1753;SDS011;58380;48.312;9.246;2024-03-29T14:50:38;1.48;;;0.70;;
1753;SDS011;58380;48.312;9.246;2024-03-29T14:53:38;2.50;;;0.80;;
1753;SDS011;58380;48.312;9.246;2024-03-29T14:56:38;1.83;;;1.02;;
1753;SDS011;58380;48.312;9.246;2024-03-29T14:59:39;3.47;;;0.80;;
1753;SDS011;58380;48.312;9.246;2024-03-29T15:02:39;1.27;;;0.80;;
1753;SDS011;58380;48.312;9.246;2024-03-29T15:05:40;1.58;;;0.80;;
1753;SDS011;58380;48.312;9.246;2024-03-29T15:08:42;1.30;;;0.65;;
1753;SDS011;58380;48.312;9.246;2024-03-29T15:11:42;1.27;;;0.60;;
1753;SDS011;58380;48.312;9.246;2024-03-29T15:14:42;1.35;;;0.82;;
1753;SDS011;58380;48.312;9.246;2024-03-29T15:17:43;0.70;;;0.50;;
1753;SDS011;58380;48.312;9.246;2024-03-29T15:20:52;1.20;;;0.90;;
1753;SDS011;58380;48.312;9.246;2024-03-29T15:24:01;5.65;;;0.80;;
1753;SDS011;58380;48.312;9.246;2024-03-29T15:27:01;4.32;;;1.10;;
1753;SDS011;58380;48.312;9.246;2024-03-29T15:30:03;2.60;;;0.90;;
1753;SDS011;58380;48.312;9.246;2024-03-29T15:33:04;1.10;;;0.60;;
1753;SDS011;58380;48.312;9.246;2024-03-29T15:36:04;1.35;;;0.60;;
1753;SDS011;58380;48.312;9.246;2024-03-29T15:39:05;1.60;;;0.60;;
1753;SDS011;58380;48.312;9.246;2024-03-29T15:42:09;1.88;;;0.70;;
1753;SDS011;58380;48.312;9.246;2024-03-29T15:45:09;1.25;;;0.80;;
1753;SDS011;58380;48.312;9.246;2024-03-29T15:48:10;3.28;;;0.75;;
1753;SDS011;58380;48.312;9.246;2024-03-29T15:51:11;1.10;;;0.73;;
1753;SDS011;58380;48.312;9.246;2024-03-29T15:54:13;1.27;;;0.60;;
1753;SDS011;58380;48.312;9.246;2024-03-29T15:57:16;7.68;;;1.52;;
1753;SDS011;58380;48.312;9.246;2024-03-29T16:00:17;3.10;;;1.30;;
1753;SDS011;58380;48.312;9.246;2024-03-29T16:03:18;1.95;;;0.93;;
1753;SDS011;58380;48.312;9.246;2024-03-29T16:06:18;1.85;;;0.95;;
1753;SDS011;58380;48.312;9.246;2024-03-29T16:09:19;2.45;;;1.48;;
1753;SDS011;58380;48.312;9.246;2024-03-29T16:12:19;1.85;;;0.90;;
1753;SDS011;58380;48.312;9.246;2024-03-29T16:15:19;2.28;;;0.85;;
1753;SDS011;58380;48.312;9.246;2024-03-29T16:18:20;1.67;;;0.80;;
1753;SDS011;58380;48.312;9.246;2024-03-29T16:21:20;1.67;;;0.70;;
1753;SDS011;58380;48.312;9.246;2024-03-29T16:24:21;1.40;;;0.80;;
1753;SDS011;58380;48.312;9.246;2024-03-29T16:27:21;1.23;;;0.70;;
1753;SDS011;58380;48.312;9.246;2024-03-29T16:30:21;2.60;;;0.85;;
1753;SDS011;58380;48.312;9.246;2024-03-29T16:33:22;2.85;;;1.10;;
1753;SDS011;58380;48.312;9.246;2024-03-29T16:36:22;1.95;;;1.05;;
1753;SDS011;58380;48.312;9.246;2024-03-29T16:39:22;1.67;;;0.80;;
1753;SDS011;58380;48.312;9.246;2024-03-29T16:42:22;3.35;;;1.50;;
1753;SDS011;58380;48.312;9.246;2024-03-29T16:45:23;2.88;;;0.90;;
1753;SDS011;58380;48.312;9.246;2024-03-29T16:48:23;1.58;;;0.82;;
1753;SDS011;58380;48.312;9.246;2024-03-29T16:51:24;2.30;;;0.85;;
1753;SDS011;58380;48.312;9.246;2024-03-29T16:54:24;2.05;;;1.13;;
1753;SDS011;58380;48.312;9.246;2024-03-29T16:57:24;2.42;;;0.90;;
1753;SDS011;58380;48.312;9.246;2024-03-29T17:00:25;3.88;;;0.80;;
1753;SDS011;58380;48.312;9.246;2024-03-29T17:03:25;3.53;;;0.65;;
1753;SDS011;58380;48.312;9.246;2024-03-29T17:06:26;3.95;;;1.10;;
1753;SDS011;58380;48.312;9.246;2024-03-29T17:09:34;4.60;;;0.93;;
1753;SDS011;58380;48.312;9.246;2024-03-29T17:12:35;3.80;;;1.50;;
1753;SDS011;58380;48.312;9.246;2024-03-29T17:15:36;1.48;;;0.90;;
1753;SDS011;58380;48.312;9.246;2024-03-29T17:18:36;4.22;;;0.85;;
1753;SDS011;58380;48.312;9.246;2024-03-29T17:21:36;2.15;;;0.80;;
1753;SDS011;58380;48.312;9.246;2024-03-29T17:24:37;1.85;;;0.77;;
1753;SDS011;58380;48.312;9.246;2024-03-29T17:27:37;2.90;;;0.90;;
1753;SDS011;58380;48.312;9.246;2024-03-29T17:30:38;3.30;;;1.00;;
1753;SDS011;58380;48.312;9.246;2024-03-29T17:33:39;2.85;;;0.95;;
1753;SDS011;58380;48.312;9.246;2024-03-29T17:36:40;1.88;;;0.73;;
1753;SDS011;58380;48.312;9.246;2024-03-29T17:39:41;1.67;;;0.93;;
1753;SDS011;58380;48.312;9.246;2024-03-29T17:42:41;2.75;;;0.90;;
1753;SDS011;58380;48.312;9.246;2024-03-29T17:45:42;8.98;;;4.53;;
1753;SDS011;58380;48.312;9.246;2024-03-29T17:48:42;9.68;;;4.10;;
1753;SDS011;58380;48.312;9.246;2024-03-29T17:51:42;9.35;;;2.30;;
1753;SDS011;58380;48.312;9.246;2024-03-29T17:54:46;2.03;;;0.98;;
1753;SDS011;58380;48.312;9.246;2024-03-29T17:57:46;2.10;;;1.00;;
1753;SDS011;58380;48.312;9.246;2024-03-29T18:00:49;2.78;;;1.13;;
1753;SDS011;58380;48.312;9.246;2024-03-29T18:03:50;1.70;;;0.95;;
1753;SDS011;58380;48.312;9.246;2024-03-29T18:06:50;2.30;;;0.75;;
1753;SDS011;58380;48.312;9.246;2024-03-29T18:09:51;4.55;;;0.90;;
1753;SDS011;58380;48.312;9.246;2024-03-29T18:12:51;1.75;;;0.80;;
1753;SDS011;58380;48.312;9.246;2024-03-29T18:15:52;1.55;;;0.90;;
1753;SDS011;58380;48.312;9.246;2024-03-29T18:18:52;2.42;;;1.00;;
1753;SDS011;58380;48.312;9.246;2024-03-29T18:21:52;3.13;;;1.02;;
1753;SDS011;58380;48.312;9.246;2024-03-29T18:24:54;3.00;;;0.90;;
1753;SDS011;58380;48.312;9.246;2024-03-29T18:27:55;2.78;;;1.27;;
1753;SDS011;58380;48.312;9.246;2024-03-29T18:30:55;5.28;;;1.27;;
1753;SDS011;58380;48.312;9.246;2024-03-29T18:34:06;12.45;;;6.20;;
1753;SDS011;58380;48.312;9.246;2024-03-29T18:37:06;8.60;;;4.65;;
1753;SDS011;58380;48.312;9.246;2024-03-29T18:40:07;6.82;;;3.00;;
1753;SDS011;58380;48.312;9.246;2024-03-29T18:43:07;6.15;;;4.50;;
1753;SDS011;58380;48.312;9.246;2024-03-29T18:46:08;31.63;;;17.17;;
1753;SDS011;58380;48.312;9.246;2024-03-29T18:49:08;16.77;;;7.97;;
1753;SDS011;58380;48.312;9.246;2024-03-29T18:52:08;10.80;;;3.15;;
1753;SDS011;58380;48.312;9.246;2024-03-29T18:55:09;5.32;;;1.83;;
1753;SDS011;58380;48.312;9.246;2024-03-29T18:58:10;3.20;;;1.30;;
1753;SDS011;58380;48.312;9.246;2024-03-29T19:01:10;8.52;;;4.10;;
1753;SDS011;58380;48.312;9.246;2024-03-29T19:04:11;8.60;;;3.70;;
1753;SDS011;58380;48.312;9.246;2024-03-29T19:07:12;6.68;;;1.60;;
1753;SDS011;58380;48.312;9.246;2024-03-29T19:10:13;3.90;;;1.30;;
1753;SDS011;58380;48.312;9.246;2024-03-29T19:13:13;11.60;;;1.60;;
1753;SDS011;58380;48.312;9.246;2024-03-29T19:16:13;9.73;;;3.08;;
1753;SDS011;58380;48.312;9.246;2024-03-29T19:19:15;20.80;;;8.15;;
1753;SDS011;58380;48.312;9.246;2024-03-29T19:22:17;25.95;;;9.25;;
1753;SDS011;58380;48.312;9.246;2024-03-29T19:25:18;20.73;;;6.13;;
1753;SDS011;58380;48.312;9.246;2024-03-29T19:28:19;17.67;;;5.75;;
1753;SDS011;58380;48.312;9.246;2024-03-29T19:31:19;20.73;;;4.70;;
1753;SDS011;58380;48.312;9.246;2024-03-29T19:34:19;31.27;;;5.10;;
1753;SDS011;58380;48.312;9.246;2024-03-29T19:37:20;23.77;;;3.72;;
1753;SDS011;58380;48.312;9.246;2024-03-29T19:40:20;18.70;;;3.50;;
1753;SDS011;58380;48.312;9.246;2024-03-29T19:43:22;21.70;;;4.30;;
1753;SDS011;58380;48.312;9.246;2024-03-29T19:46:23;37.60;;;5.30;;
1753;SDS011;58380;48.312;9.246;2024-03-29T19:49:24;39.67;;;8.93;;
1753;SDS011;58380;48.312;9.246;2024-03-29T19:52:24;33.92;;;7.78;;
1753;SDS011;58380;48.312;9.246;2024-03-29T19:55:24;45.28;;;9.18;;
1753;SDS011;58380;48.312;9.246;2024-03-29T19:58:25;48.75;;;15.48;;
1753;SDS011;58380;48.312;9.246;2024-03-29T20:01:26;58.10;;;13.07;;
1753;SDS011;58380;48.312;9.246;2024-03-29T20:04:27;50.83;;;13.00;;
1753;SDS011;58380;48.312;9.246;2024-03-29T20:07:29;55.20;;;11.98;;
1753;SDS011;58380;48.312;9.246;2024-03-29T20:10:29;49.13;;;11.65;;
1753;SDS011;58380;48.312;9.246;2024-03-29T20:13:37;62.08;;;13.75;;
1753;SDS011;58380;48.312;9.246;2024-03-29T20:16:37;41.33;;;11.25;;
1753;SDS011;58380;48.312;9.246;2024-03-29T20:19:38;42.97;;;11.57;;
1753;SDS011;58380;48.312;9.246;2024-03-29T20:22:38;38.38;;;10.15;;
1753;SDS011;58380;48.312;9.246;2024-03-29T20:25:39;54.47;;;10.80;;
1753;SDS011;58380;48.312;9.246;2024-03-29T20:28:41;55.67;;;10.05;;
1753;SDS011;58380;48.312;9.246;2024-03-29T20:31:41;45.80;;;11.80;;
1753;SDS011;58380;48.312;9.246;2024-03-29T20:34:42;51.92;;;10.82;;
1753;SDS011;58380;48.312;9.246;2024-03-29T20:37:42;47.78;;;11.68;;
1753;SDS011;58380;48.312;9.246;2024-03-29T20:40:43;44.78;;;11.45;;
1753;SDS011;58380;48.312;9.246;2024-03-29T20:43:44;52.22;;;11.90;;
1753;SDS011;58380;48.312;9.246;2024-03-29T20:46:46;41.17;;;12.57;;
1753;SDS011;58380;48.312;9.246;2024-03-29T20:49:49;42.00;;;11.93;;
1753;SDS011;58380;48.312;9.246;2024-03-29T20:52:54;38.75;;;14.32;;
1753;SDS011;58380;48.312;9.246;2024-03-29T20:56:05;44.28;;;14.20;;
1753;SDS011;58380;48.312;9.246;2024-03-29T20:59:07;46.88;;;10.55;;
1753;SDS011;58380;48.312;9.246;2024-03-29T21:02:07;40.95;;;11.77;;
1753;SDS011;58380;48.312;9.246;2024-03-29T21:05:26;63.15;;;13.65;;
1753;SDS011;58380;48.312;9.246;2024-03-29T21:08:34;52.25;;;12.98;;
1753;SDS011;58380;48.312;9.246;2024-03-29T21:14:51;67.05;;;12.45;;
1753;SDS011;58380;48.312;9.246;2024-03-29T21:17:51;68.43;;;12.98;;
1753;SDS011;58380;48.312;9.246;2024-03-29T21:20:53;73.25;;;14.13;;
1753;SDS011;58380;48.312;9.246;2024-03-29T21:23:54;44.72;;;9.80;;
1753;SDS011;58380;48.312;9.246;2024-03-29T21:26:54;65.35;;;15.10;;
1753;SDS011;58380;48.312;9.246;2024-03-29T21:29:55;106.68;;;26.23;;
1753;SDS011;58380;48.312;9.246;2024-03-29T21:32:55;80.65;;;16.00;;
1753;SDS011;58380;48.312;9.246;2024-03-29T21:35:56;76.90;;;11.07;;
1753;SDS011;58380;48.312;9.246;2024-03-29T21:38:56;66.22;;;11.90;;
1753;SDS011;58380;48.312;9.246;2024-03-29T21:41:56;76.75;;;12.48;;
